createdAt,value
2022-09-10T00:01:22.182Z,100249.66
2022-09-10T00:03:50.291Z,100250.16
2022-09-10T00:06:19.291Z,100242.06
2022-09-10T00:08:47.313Z,100243.34
2022-09-10T00:11:15.357Z,100235.50
2022-09-10T00:13:43.855Z,100236.97
2022-09-10T00:16:13.465Z,100211.00
2022-09-10T00:18:41.848Z,100231.50
2022-09-10T00:21:12.837Z,100230.66
2022-09-10T00:23:40.673Z,100228.97
2022-09-10T00:26:21.974Z,100234.41
2022-09-10T00:28:51.687Z,100228.31
2022-09-10T00:31:19.982Z,100229.59
2022-09-10T00:33:48.075Z,100237.03
2022-09-10T00:36:24.476Z,100237.06
2022-09-10T00:38:55.163Z,100242.84
2022-09-10T00:41:27.634Z,100243.66
2022-09-10T00:44:03.917Z,100243.44
2022-09-10T00:46:59.482Z,100250.88
2022-09-10T00:49:35.100Z,100260.97
2022-09-10T00:52:03.018Z,100259.28
2022-09-10T00:54:34.036Z,100263.34
2022-09-10T00:57:06.528Z,100266.56
2022-09-10T00:59:34.973Z,100267.34
2022-09-10T01:02:02.878Z,100268.47
2022-09-10T01:04:31.602Z,100269.22
2022-09-10T01:07:00.750Z,100285.72
2022-09-10T01:09:29.547Z,100279.38
2022-09-10T01:12:06.278Z,100289.97
2022-09-10T01:14:58.276Z,100297.69
2022-09-10T01:17:45.249Z,100297.00
2022-09-10T01:20:48.479Z,100289.75
2022-09-10T01:23:34.223Z,100295.44
2022-09-10T01:26:25.524Z,100280.31
2022-09-10T01:29:10.528Z,100289.25
2022-09-10T01:31:54.429Z,100289.19
2022-09-10T01:34:34.876Z,100283.84
2022-09-10T01:37:11.551Z,100283.34
2022-09-10T01:39:39.841Z,100279.00
2022-09-10T01:42:07.983Z,100282.13
2022-09-10T01:44:47.871Z,100264.91
2022-09-10T01:47:43.874Z,100277.03
2022-09-10T01:50:30.343Z,100273.94
2022-09-10T01:53:14.889Z,100268.03
2022-09-10T01:56:10.213Z,100266.47
2022-09-10T01:58:45.424Z,100260.44
2022-09-10T02:01:30.022Z,100266.13
2022-09-10T02:04:01.744Z,100266.06
2022-09-10T02:06:33.373Z,100268.97
2022-09-10T02:09:03.003Z,100272.75
2022-09-10T02:11:43.540Z,100275.63
2022-09-10T02:14:14.657Z,100274.88
2022-09-10T02:17:08.275Z,100251.38
2022-09-10T02:19:35.603Z,100266.75
2022-09-10T02:22:05.007Z,100283.88
2022-09-10T02:24:32.437Z,100282.78
2022-09-10T02:27:00.982Z,100295.94
2022-09-10T02:29:28.976Z,100288.88
2022-09-10T02:31:57.650Z,100283.19
2022-09-10T02:34:24.889Z,100278.03
2022-09-10T02:36:54.491Z,100285.66
2022-09-10T02:39:24.068Z,100286.34
2022-09-10T02:41:52.768Z,100288.56
2022-09-10T02:44:21.320Z,100287.56
2022-09-10T02:46:48.696Z,100285.88
2022-09-10T02:49:15.980Z,100291.16
2022-09-10T02:51:44.883Z,100287.63
2022-09-10T02:54:13.324Z,100283.41
2022-09-10T02:56:40.831Z,100289.91
2022-09-10T02:59:08.469Z,100287.94
2022-09-10T03:01:40.596Z,100298.19
2022-09-10T03:04:10.063Z,100285.03
2022-09-10T03:06:39.425Z,100280.50
2022-09-10T03:09:06.818Z,100301.69
2022-09-10T03:11:35.104Z,100298.78
2022-09-10T03:14:02.604Z,100303.69
2022-09-10T03:16:31.878Z,100303.03
2022-09-10T03:19:03.049Z,100299.16
2022-09-10T03:21:35.580Z,100310.41
2022-09-10T03:24:10.320Z,100308.75
2022-09-10T03:26:38.468Z,100308.84
2022-09-10T03:29:05.814Z,100307.09
2022-09-10T03:31:40.116Z,100310.19
2022-09-10T03:34:08.906Z,100314.84
2022-09-10T03:36:37.494Z,100314.25
2022-09-10T03:39:08.280Z,100322.34
2022-09-10T03:41:37.623Z,100326.16
2022-09-10T03:44:05.800Z,100335.31
2022-09-10T03:46:33.324Z,100331.63
2022-09-10T03:49:02.693Z,100332.91
2022-09-10T03:51:34.147Z,100338.19
2022-09-10T03:54:03.088Z,100337.84
2022-09-10T03:56:32.835Z,100335.56
2022-09-10T03:59:00.560Z,100341.91
2022-09-10T04:01:29.220Z,100336.44
2022-09-10T04:03:58.280Z,100329.06
2022-09-10T04:06:28.375Z,100323.31
2022-09-10T04:08:56.116Z,100321.69
2022-09-10T04:11:27.856Z,100328.22
2022-09-10T04:13:57.032Z,100313.84
2022-09-10T04:16:25.297Z,100319.28
2022-09-10T04:18:52.650Z,100294.91
2022-09-10T04:21:20.781Z,100321.56
2022-09-10T04:23:54.692Z,100314.94
2022-09-10T04:26:23.005Z,100324.25
2022-09-10T04:28:51.487Z,100326.28
2022-09-10T04:31:19.280Z,100316.97
2022-09-10T04:33:47.207Z,100328.56
2022-09-10T04:36:17.439Z,100317.13
2022-09-10T04:38:45.381Z,100318.19
2022-09-10T04:41:15.819Z,100325.63
2022-09-10T04:43:43.905Z,100314.56
2022-09-10T04:46:11.453Z,100181.59
2022-09-10T04:48:41.867Z,100312.66
2022-09-10T04:51:17.799Z,100314.38
2022-09-10T04:53:51.837Z,100289.25
2022-09-10T04:56:22.312Z,100323.91
2022-09-10T04:58:52.201Z,100313.22
2022-09-10T05:01:20.095Z,100324.88
2022-09-10T05:03:51.031Z,100332.03
2022-09-10T05:06:19.517Z,100337.16
2022-09-10T05:08:48.412Z,100340.00
2022-09-10T05:11:15.740Z,100330.22
2022-09-10T05:13:43.765Z,100342.88
2022-09-10T05:16:12.758Z,100342.69
2022-09-10T05:18:40.785Z,100346.75
2022-09-10T05:21:09.546Z,100350.72
2022-09-10T05:23:36.860Z,100319.97
2022-09-10T05:26:04.205Z,100356.00
2022-09-10T05:28:31.641Z,100342.56
2022-09-10T05:30:59.092Z,100357.63
2022-09-10T05:33:28.618Z,100361.06
2022-09-10T05:35:56.011Z,100344.47
2022-09-10T05:38:24.993Z,100356.44
2022-09-10T05:40:52.967Z,100351.47
2022-09-10T05:43:21.644Z,100354.16
2022-09-10T05:45:49.238Z,100369.66
2022-09-10T05:48:17.971Z,100337.00
2022-09-10T05:50:46.301Z,100341.50
2022-09-10T05:53:14.320Z,100369.31
2022-09-10T05:55:41.617Z,100368.69
2022-09-10T05:58:09.458Z,100367.91
2022-09-10T06:00:38.868Z,100363.44
2022-09-10T06:03:06.552Z,100370.63
2022-09-10T06:05:39.689Z,100369.84
2022-09-10T06:08:08.901Z,100367.84
2022-09-10T06:10:41.310Z,100344.63
2022-09-10T06:13:09.221Z,100373.09
2022-09-10T06:15:38.136Z,100363.91
2022-09-10T06:18:05.758Z,100370.88
2022-09-10T06:20:33.363Z,100359.63
2022-09-10T06:23:01.346Z,100369.16
2022-09-10T06:25:29.158Z,100358.34
2022-09-10T06:27:57.846Z,100369.72
2022-09-10T06:30:26.486Z,100357.94
2022-09-10T06:32:54.373Z,100356.44
2022-09-10T06:35:21.901Z,100357.22
2022-09-10T06:37:50.667Z,100351.47
2022-09-10T06:40:18.882Z,100357.47
2022-09-10T06:42:46.247Z,100324.34
2022-09-10T06:45:13.793Z,100362.09
2022-09-10T06:48:37.658Z,100309.25
2022-09-10T06:51:02.144Z,100365.59
2022-09-10T06:53:34.446Z,100358.59
2022-09-10T06:56:06.152Z,100356.81
2022-09-10T06:58:35.506Z,100360.44
2022-09-10T07:01:14.622Z,100356.97
2022-09-10T07:03:46.907Z,100347.75
2022-09-10T07:06:16.835Z,100347.34
2022-09-10T07:08:47.342Z,100338.00
2022-09-10T07:11:18.803Z,100346.28
2022-09-10T07:13:52.231Z,100356.06
2022-09-10T07:16:23.527Z,100345.94
2022-09-10T07:18:58.723Z,100363.81
2022-09-10T07:21:45.958Z,100351.53
2022-09-10T07:24:15.434Z,100364.16
2022-09-10T07:27:06.149Z,100366.59
2022-09-10T07:29:35.582Z,100354.06
2022-09-10T07:32:04.724Z,100342.69
2022-09-10T07:34:34.808Z,100352.66
2022-09-10T07:37:03.978Z,100344.78
2022-09-10T07:39:32.334Z,100348.09
2022-09-10T07:42:00.559Z,100367.47
2022-09-10T07:44:30.558Z,100361.03
2022-09-10T07:47:03.784Z,100345.09
2022-09-10T07:49:32.941Z,100373.19
2022-09-10T07:52:00.693Z,100379.00
2022-09-10T07:54:36.600Z,100367.22
2022-09-10T07:57:05.618Z,100374.59
2022-09-10T07:59:34.549Z,100378.91
2022-09-10T08:02:04.012Z,100378.41
2022-09-10T08:04:36.548Z,100381.59
2022-09-10T08:07:07.633Z,100373.59
2022-09-10T08:09:37.970Z,100362.84
2022-09-10T08:12:10.688Z,100384.91
2022-09-10T08:14:38.351Z,100387.19
2022-09-10T08:17:06.348Z,100398.13
2022-09-10T08:19:39.735Z,100400.66
2022-09-10T08:22:11.456Z,100403.78
2022-09-10T08:24:45.093Z,100403.81
2022-09-10T08:27:12.479Z,100406.44
2022-09-10T08:29:40.011Z,100405.44
2022-09-10T08:32:13.519Z,100407.78
2022-09-10T08:34:42.220Z,100386.00
2022-09-10T08:37:12.702Z,100401.63
2022-09-10T08:39:41.451Z,100401.72
2022-09-10T08:42:31.146Z,100398.81
2022-09-10T08:45:05.430Z,100402.66
2022-09-10T08:47:53.738Z,100388.63
2022-09-10T08:51:03.200Z,100392.63
2022-09-10T08:53:58.236Z,100392.59
2022-09-10T08:56:28.570Z,100387.31
2022-09-10T08:59:07.029Z,100395.19
2022-09-10T09:01:43.743Z,100379.84
2022-09-10T09:04:51.304Z,100377.84
2022-09-10T09:07:21.069Z,100384.28
2022-09-10T09:09:54.723Z,100389.38
2022-09-10T09:12:53.543Z,100387.69
2022-09-10T09:15:43.499Z,100391.78
2022-09-10T09:18:25.746Z,100394.78
2022-09-10T09:21:01.164Z,100397.72
2022-09-10T09:24:14.329Z,100395.41
2022-09-10T09:26:50.321Z,100408.25
2022-09-10T09:29:29.030Z,100398.53
2022-09-10T09:32:03.875Z,100409.00
2022-09-10T09:34:45.842Z,100418.69
2022-09-10T09:37:21.684Z,100412.66
2022-09-10T09:40:06.728Z,100414.97
2022-09-10T09:42:54.039Z,100422.88
2022-09-10T09:45:35.341Z,100418.47
2022-09-10T09:48:04.919Z,100417.72
2022-09-10T09:50:39.114Z,100407.72
2022-09-10T09:53:06.452Z,100411.06
2022-09-10T09:55:44.915Z,100414.81
2022-09-10T09:58:21.446Z,100416.88
2022-09-10T10:01:03.977Z,100412.88
2022-09-10T10:03:37.938Z,100389.50
2022-09-10T10:06:08.701Z,100417.97
2022-09-10T10:08:58.324Z,100415.03
2022-09-10T10:11:51.539Z,100398.81
2022-09-10T10:14:24.402Z,100405.09
2022-09-10T10:16:57.298Z,100409.94
2022-09-10T10:19:37.118Z,100401.31
2022-09-10T10:22:19.924Z,100394.41
2022-09-10T10:24:50.013Z,100393.28
2022-09-10T10:27:35.517Z,100389.38
2022-09-10T10:30:18.533Z,100390.66
2022-09-10T10:32:58.217Z,100382.78
2022-09-10T10:35:34.500Z,100379.06
2022-09-10T10:38:27.516Z,100381.56
2022-09-10T10:41:33.548Z,100370.41
2022-09-10T10:44:44.564Z,100372.06
2022-09-10T10:47:24.002Z,100383.81
2022-09-10T10:50:10.137Z,100372.63
2022-09-10T10:53:04.094Z,100354.34
2022-09-10T10:55:38.445Z,100377.03
2022-09-10T10:58:40.753Z,100371.41
2022-09-10T11:01:18.617Z,100374.50
2022-09-10T11:04:08.152Z,100366.63
2022-09-10T11:06:44.628Z,100359.63
2022-09-10T11:09:39.477Z,100355.47
2022-09-10T11:12:18.391Z,100362.38
2022-09-10T11:14:59.232Z,100354.53
2022-09-10T11:17:53.567Z,100359.31
2022-09-10T11:20:30.285Z,100353.19
2022-09-10T11:23:07.388Z,100357.69
2022-09-10T11:26:00.796Z,100356.94
2022-09-10T11:28:38.988Z,100351.56
2022-09-10T11:31:18.787Z,100350.47
2022-09-10T11:34:00.456Z,100347.59
2022-09-10T11:36:42.412Z,100330.50
2022-09-10T11:39:35.818Z,100349.94
2022-09-10T11:42:17.040Z,100349.31
2022-09-10T11:44:47.918Z,100341.56
2022-09-10T11:47:24.961Z,100342.16
2022-09-10T11:50:22.477Z,100344.81
2022-09-10T11:52:50.958Z,100322.16
2022-09-10T11:55:18.579Z,100345.69
2022-09-10T11:58:13.878Z,100339.00
2022-09-10T12:01:15.044Z,100337.44
2022-09-10T12:04:21.207Z,100339.53
2022-09-10T12:07:28.002Z,100342.38
2022-09-10T12:10:02.036Z,100341.94
2022-09-10T12:12:51.488Z,100333.03
2022-09-10T12:15:26.211Z,100327.31
2022-09-10T12:18:05.379Z,100326.22
2022-09-10T12:20:42.546Z,100340.53
2022-09-10T12:23:19.399Z,100328.84
2022-09-10T12:26:01.167Z,100323.97
2022-09-10T12:28:46.092Z,100330.31
2022-09-10T12:31:21.249Z,100322.84
2022-09-10T12:33:55.010Z,100328.84
2022-09-10T12:36:37.749Z,100317.97
2022-09-10T12:39:26.232Z,100316.22
2022-09-10T12:41:54.135Z,100317.16
2022-09-10T12:44:37.051Z,100311.72
2022-09-10T12:47:17.125Z,100309.63
2022-09-10T12:49:56.050Z,100308.59
2022-09-10T12:52:37.329Z,100312.00
2022-09-10T12:55:13.629Z,100312.19
2022-09-10T12:58:07.383Z,100312.06
2022-09-10T13:00:54.889Z,100302.09
2022-09-10T13:03:25.975Z,100308.53
2022-09-10T13:05:56.912Z,100303.19
2022-09-10T13:08:37.678Z,100303.19
2022-09-10T13:11:20.329Z,100300.78
2022-09-10T13:14:00.877Z,100306.03
2022-09-10T13:16:28.754Z,100308.88
2022-09-10T13:19:18.220Z,100302.25
2022-09-10T13:21:52.634Z,100301.09
2022-09-10T13:24:36.286Z,100299.56
2022-09-10T13:27:26.693Z,100296.06
2022-09-10T13:30:20.779Z,100298.09
2022-09-10T13:32:52.509Z,100292.09
2022-09-10T13:35:26.595Z,100290.72
2022-09-10T13:38:03.704Z,100281.28
2022-09-10T13:40:35.204Z,100280.22
2022-09-10T13:43:23.445Z,100275.94
2022-09-10T13:45:57.489Z,100274.75
2022-09-10T13:48:30.983Z,100291.13
2022-09-10T13:51:06.869Z,100285.53
2022-09-10T13:53:36.305Z,100288.59
2022-09-10T13:56:14.470Z,100281.97
2022-09-10T13:58:50.075Z,100288.06
2022-09-10T14:01:18.690Z,100285.50
2022-09-10T14:03:49.943Z,100288.56
2022-09-10T14:06:25.488Z,100280.06
2022-09-10T14:08:58.064Z,100277.38
2022-09-10T14:11:33.757Z,100270.19
2022-09-10T14:14:17.008Z,100270.50
2022-09-10T14:16:47.370Z,100259.72
2022-09-10T14:19:20.351Z,100276.31
2022-09-10T14:21:50.658Z,100249.69
2022-09-10T14:24:30.874Z,100269.56
2022-09-10T14:27:18.864Z,100263.38
2022-09-10T14:29:47.419Z,100278.03
2022-09-10T14:32:36.884Z,100272.50
2022-09-10T14:35:36.305Z,100274.78
2022-09-10T14:38:09.469Z,100280.09
2022-09-10T14:40:38.265Z,100277.41
2022-09-10T14:43:16.730Z,100276.81
2022-09-10T14:45:48.070Z,100285.34
2022-09-10T14:49:02.105Z,100286.34
2022-09-10T14:51:29.424Z,100278.31
2022-09-10T14:53:59.020Z,100275.66
2022-09-10T14:56:33.745Z,100284.56
2022-09-10T14:59:15.035Z,100270.88
2022-09-10T15:01:44.948Z,100278.69
2022-09-10T15:04:18.487Z,100279.78
2022-09-10T15:06:45.955Z,100270.84
2022-09-10T15:09:15.207Z,100269.47
2022-09-10T15:11:54.997Z,100273.34
2022-09-10T15:14:23.467Z,100266.56
2022-09-10T15:16:52.464Z,100259.75
2022-09-10T15:19:20.308Z,100267.25
2022-09-10T15:21:48.331Z,100253.25
2022-09-10T15:24:20.115Z,100262.03
2022-09-10T15:26:48.674Z,100267.81
2022-09-10T15:29:18.391Z,100260.03
2022-09-10T15:31:47.330Z,100267.69
2022-09-10T15:34:15.827Z,100264.75
2022-09-10T15:36:44.527Z,100269.03
2022-09-10T15:39:13.471Z,100272.38
2022-09-10T15:41:44.179Z,100273.53
2022-09-10T15:44:18.696Z,100264.47
2022-09-10T15:46:47.452Z,100272.00
2022-09-10T15:49:15.806Z,100269.16
2022-09-10T15:51:44.292Z,100261.88
2022-09-10T15:54:18.160Z,100266.69
2022-09-10T15:56:48.449Z,100267.22
2022-09-10T15:59:16.955Z,100265.34
2022-09-10T16:01:45.186Z,100257.72
2022-09-10T16:04:16.293Z,100230.25
2022-09-10T16:06:48.717Z,100241.66
2022-09-10T16:09:21.106Z,100246.81
2022-09-10T16:11:48.905Z,100241.19
2022-09-10T16:14:18.737Z,100254.13
2022-09-10T16:16:49.955Z,100249.28
2022-09-10T16:19:17.873Z,100249.78
2022-09-10T16:21:48.695Z,100242.34
2022-09-10T16:24:16.178Z,100244.09
2022-09-10T16:26:48.236Z,100210.25
2022-09-10T16:29:19.839Z,100242.69
2022-09-10T16:31:47.546Z,100255.56
2022-09-10T16:34:20.012Z,100250.16
2022-09-10T16:36:51.762Z,100249.72
2022-09-10T16:39:20.359Z,100247.91
2022-09-10T16:41:49.419Z,100245.13
2022-09-10T16:44:18.412Z,100243.47
2022-09-10T16:46:47.285Z,100242.34
2022-09-10T16:49:18.505Z,100246.25
2022-09-10T16:51:47.955Z,100239.56
2022-09-10T16:54:19.637Z,100235.16
2022-09-10T16:56:48.528Z,100237.94
2022-09-10T16:59:19.809Z,100241.03
2022-09-10T17:01:48.672Z,100228.72
2022-09-10T17:04:22.346Z,100236.41
2022-09-10T17:06:51.447Z,100223.75
2022-09-10T17:09:18.824Z,100227.00
2022-09-10T17:11:46.326Z,100230.25
2022-09-10T17:14:13.645Z,100243.75
2022-09-10T17:16:42.476Z,100244.81
2022-09-10T17:19:15.460Z,100237.03
2022-09-10T17:21:51.470Z,100240.50
2022-09-10T17:24:21.220Z,100239.06
2022-09-10T17:26:49.974Z,100243.50
2022-09-10T17:29:23.039Z,100242.38
2022-09-10T17:31:52.374Z,100245.69
2022-09-10T17:34:24.725Z,100246.22
2022-09-10T17:36:52.516Z,100250.94
2022-09-10T17:39:20.090Z,100255.41
2022-09-10T17:41:48.100Z,100265.94
2022-09-10T17:44:16.743Z,100256.38
2022-09-10T17:46:45.282Z,100256.59
2022-09-10T17:49:16.040Z,100252.34
2022-09-10T17:51:44.104Z,100258.34
2022-09-10T17:54:13.376Z,100260.06
2022-09-10T17:56:42.025Z,100249.22
2022-09-10T17:59:13.169Z,100244.56
2022-09-10T18:01:41.822Z,100270.53
2022-09-10T18:04:14.867Z,100272.63
2022-09-10T18:06:42.295Z,100269.25
2022-09-10T18:09:11.504Z,100267.34
2022-09-10T18:11:40.704Z,100254.59
2022-09-10T18:14:08.660Z,100245.41
2022-09-10T18:16:36.705Z,100267.13
2022-09-10T18:19:13.926Z,100282.63
2022-09-10T18:21:45.715Z,100277.28
2022-09-10T18:24:21.202Z,100276.19
2022-09-10T18:26:50.135Z,100269.78
2022-09-10T18:29:30.247Z,100264.47
2022-09-10T18:32:00.880Z,100272.13
2022-09-10T18:34:30.386Z,100281.50
2022-09-10T18:37:00.774Z,100275.50
2022-09-10T18:39:31.349Z,100275.88
2022-09-10T18:42:00.858Z,100268.88
2022-09-10T18:44:33.447Z,100281.63
2022-09-10T18:47:01.047Z,100293.72
2022-09-10T18:49:28.478Z,100281.81
2022-09-10T18:51:57.039Z,100260.06
2022-09-10T18:54:28.974Z,100292.66
2022-09-10T18:56:57.534Z,100296.47
2022-09-10T18:59:25.863Z,100293.91
2022-09-10T19:01:56.183Z,100294.66
2022-09-10T19:04:26.986Z,100293.41
2022-09-10T19:06:55.446Z,100290.38
2022-09-10T19:09:31.215Z,100291.22
2022-09-10T19:12:00.669Z,100287.59
2022-09-10T19:14:31.191Z,100290.16
2022-09-10T19:17:00.689Z,100290.56
2022-09-10T19:19:34.121Z,100289.53
2022-09-10T19:22:04.021Z,100281.47
2022-09-10T19:27:19.361Z,100268.28
2022-09-10T19:29:47.665Z,100279.97
2022-09-10T19:32:15.374Z,100291.59
2022-09-10T19:34:44.481Z,100285.22
2022-09-10T19:37:13.124Z,100280.56
2022-09-10T19:39:40.595Z,100279.69
2022-09-10T19:42:08.273Z,100285.44
2022-09-10T19:44:35.659Z,100285.66
2022-09-10T19:47:04.251Z,100243.91
2022-09-10T19:49:32.077Z,100284.59
2022-09-10T19:52:00.406Z,100283.09
2022-09-10T19:54:28.900Z,100244.97
2022-09-10T19:56:56.621Z,100290.22
2022-09-10T19:59:24.002Z,100296.03
2022-09-10T20:01:51.435Z,100291.56
2022-09-10T20:04:19.227Z,100292.41
2022-09-10T20:06:47.832Z,100279.91
2022-09-10T20:09:15.177Z,100281.16
2022-09-10T20:11:42.562Z,100277.31
2022-09-10T20:14:14.434Z,100292.84
2022-09-10T20:16:44.175Z,100270.50
2022-09-10T20:19:14.708Z,100280.13
2022-09-10T20:21:42.561Z,100277.16
2022-09-10T20:24:11.415Z,100283.91
2022-09-10T20:26:44.006Z,100281.41
2022-09-10T20:29:14.115Z,100276.31
2022-09-10T20:31:43.462Z,100255.81
2022-09-10T20:34:17.048Z,100246.03
2022-09-10T20:36:44.502Z,100278.00
2022-09-10T20:39:17.223Z,100278.00
2022-09-10T20:41:45.121Z,100282.63
2022-09-10T20:44:16.148Z,100280.31
2022-09-10T20:46:44.243Z,100276.91
2022-09-10T20:49:14.184Z,100289.66
2022-09-10T20:51:45.018Z,100285.09
2022-09-10T20:54:15.091Z,100273.84
2022-09-10T20:56:44.429Z,100273.44
2022-09-10T20:59:14.834Z,100260.91
2022-09-10T21:01:44.406Z,100267.28
2022-09-10T21:04:13.172Z,100265.56
2022-09-10T21:06:41.006Z,100267.22
2022-09-10T21:09:08.758Z,100244.94
2022-09-10T21:11:36.432Z,100267.66
2022-09-10T21:14:05.807Z,100276.56
2022-09-10T21:16:35.713Z,100280.81
2022-09-10T21:19:08.163Z,100282.13
2022-09-10T21:21:36.669Z,100293.19
2022-09-10T21:24:09.135Z,100287.78
2022-09-10T21:26:39.566Z,100295.44
2022-09-10T21:29:11.038Z,100289.47
2022-09-10T21:31:39.014Z,100301.78
2022-09-10T21:34:06.616Z,100300.94
2022-09-10T21:36:36.041Z,100305.41
2022-09-10T21:39:06.925Z,100306.88
2022-09-10T21:41:37.122Z,100309.38
2022-09-10T21:44:08.260Z,100312.47
2022-09-10T21:46:36.945Z,100311.59
2022-09-10T21:49:05.224Z,100312.97
2022-09-10T21:51:32.884Z,100286.91
2022-09-10T21:54:00.402Z,100330.69
2022-09-10T21:56:29.912Z,100324.72
2022-09-10T21:58:59.908Z,100330.78
2022-09-10T22:01:33.024Z,100356.31
2022-09-10T22:04:01.191Z,100343.00
2022-09-10T22:06:30.981Z,100331.97
2022-09-10T22:09:01.456Z,100353.75
2022-09-10T22:11:37.915Z,100351.84
2022-09-10T22:14:08.617Z,100316.63
2022-09-10T22:16:36.296Z,100358.56
2022-09-10T22:19:07.332Z,100359.84
2022-09-10T22:21:38.581Z,100365.06
2022-09-10T22:24:06.623Z,100379.78
2022-09-10T22:26:34.917Z,100385.94
2022-09-10T22:29:03.526Z,100385.88
2022-09-10T22:31:33.334Z,100390.31
2022-09-10T22:34:07.186Z,100401.84
2022-09-10T22:36:39.860Z,100406.22
2022-09-10T22:39:13.107Z,100382.69
2022-09-10T22:41:41.575Z,100406.44
2022-09-10T22:44:09.734Z,100396.06
2022-09-10T22:46:38.288Z,100401.38
2022-09-10T22:49:06.591Z,100408.78
2022-09-10T22:51:37.093Z,100350.03
2022-09-10T22:54:06.422Z,100398.41
2022-09-10T22:56:36.044Z,100383.34
2022-09-10T22:59:05.578Z,100393.56
2022-09-10T23:01:37.862Z,100383.06
2022-09-10T23:04:06.452Z,100368.81
2022-09-10T23:06:36.847Z,100376.38
2022-09-10T23:09:11.857Z,100364.84
2022-09-10T23:11:41.783Z,100349.44
2022-09-10T23:14:13.347Z,100340.78
2022-09-10T23:16:43.587Z,100344.31
2022-09-10T23:19:17.137Z,100336.44
2022-09-10T23:21:46.956Z,100329.94
2022-09-10T23:24:16.553Z,100335.56
2022-09-10T23:26:44.275Z,100320.41
2022-09-10T23:29:13.448Z,100287.84
2022-09-10T23:31:42.227Z,100314.81
2022-09-10T23:34:18.679Z,100307.03
2022-09-10T23:36:48.606Z,100299.06
2022-09-10T23:39:20.027Z,100308.69
2022-09-10T23:41:52.303Z,100301.16
2022-09-10T23:44:20.629Z,100295.41
2022-09-10T23:46:48.664Z,100311.06
2022-09-10T23:49:16.300Z,100318.75
2022-09-10T23:51:49.127Z,100321.56
2022-09-10T23:54:18.107Z,100313.00
2022-09-10T23:56:45.746Z,100315.19
2022-09-10T23:59:13.138Z,100314.53
